Brechin, Canada
Current Conditions -  °F | °C
As of 12:00 PM on Wednesday 22 Oct 2014 (Local Time) from CYQA Reporting Station
Clear Clear  
Wind Chill: 46°   Ceiling: Unl
Heat Index: 48°   Visibility: 9mi
Dew Point: 36°   Wind: 6mph
Humidity: 62%   Direction: 350°N
Pressure: 30.29"   Gusts: NA
Location:  44.55°N, 79.18°W
Report Text: CYQA 221600Z AUTO 35005KT 300V060 9SM CLR 09/02 A3029 RMK SLP267
Loading
Personal Weather Stations






























Interactive Weather Map
Tropical Storm Tracking
New forecast layout! Learn more

10-Day Weather Forecast

Advertisements
Track Severe Weather on mobile